Time;durP1;ratioP1;P1;durP2;ratioP2;P2;SDS_P1;SDS_P2;PMS_P1;PMS_P2;Temp;Humidity;BMP_temperature;BMP_pressure;BME280_temperature;BME280_humidity;BME280_pressure;Samples;Min_cycle;Max_cycle;Signal;HPM_P1;HPM_P2
2023/09/29 00:00:33;;;;;;;9.05;3.58;;;;;;;;;;4980336;28;20034;-79
2023/09/29 00:02:59;;;;;;;5.80;3.17;;;;;;;;;;4980637;28;20364;-78
2023/09/29 00:05:24;;;;;;;8.02;4.18;;;;;;;;;;4981679;28;20036;-78
2023/09/29 00:07:53;;;;;;;11.57;3.75;;;;;;;;;;5010945;28;20034;-78
2023/09/29 00:10:20;;;;;;;11.35;3.72;;;;;;;;;;5013157;28;20100;-78
2023/09/29 00:12:49;;;;;;;10.45;3.58;;;;;;;;;;5015028;28;20122;-78
2023/09/29 00:15:15;;;;;;;6.97;3.85;;;;;;;;;;5013609;28;20031;-78
2023/09/29 00:17:41;;;;;;;8.05;4.10;;;;;;;;;;5010947;28;20053;-78
2023/09/29 00:20:25;;;;;;;8.07;3.72;;;;;;;;;;4999059;28;20034;-78
2023/09/29 00:22:52;;;;;;;6.82;3.42;;;;;;;;;;4978278;28;20034;-77
2023/09/29 00:25:18;;;;;;;8.50;3.72;;;;;;;;;;4994250;28;20045;-77
2023/09/29 00:27:44;;;;;;;9.10;4.28;;;;;;;;;;4993660;28;20468;-77
2023/09/29 00:30:11;;;;;;;7.45;4.00;;;;;;;;;;4961494;28;20037;-79
2023/09/29 00:32:48;;;;;;;8.63;4.13;;;;;;;;;;4978071;28;20406;-78
2023/09/29 00:37:45;;;;;;;10.82;4.15;;;;;;;;;;4996648;28;20030;-78
2023/09/29 00:40:14;;;;;;;10.25;4.15;;;;;;;;;;4997641;28;20031;-79
2023/09/29 00:42:41;;;;;;;8.05;4.22;;;;;;;;;;4996880;28;20405;-79
2023/09/29 00:45:08;;;;;;;9.75;3.70;;;;;;;;;;4996111;28;20406;-77
2023/09/29 00:47:37;;;;;;;7.13;4.43;;;;;;;;;;4978286;28;20030;-77
2023/09/29 00:50:10;;;;;;;9.55;4.03;;;;;;;;;;4993258;28;20079;-78
2023/09/29 00:52:38;;;;;;;6.63;3.78;;;;;;;;;;4994482;28;20054;-78
2023/09/29 00:55:15;;;;;;;7.72;4.15;;;;;;;;;;4997882;28;20464;-79
2023/09/29 00:57:41;;;;;;;6.70;3.95;;;;;;;;;;4993696;28;20030;-78
2023/09/29 01:00:53;;;;;;;9.25;3.80;;;;;;;;;;4993582;28;20037;-79
2023/09/29 01:03:03;;;;;;;6.38;4.22;;;;;;;;;;4992795;28;20049;-77
2023/09/29 01:05:31;;;;;;;10.10;4.80;;;;;;;;;;4995372;28;20106;-78
2023/09/29 01:07:56;;;;;;;7.00;3.83;;;;;;;;;;4978893;28;20042;-78
2023/09/29 01:10:24;;;;;;;7.40;4.93;;;;;;;;;;4979735;28;20040;-79
2023/09/29 01:12:50;;;;;;;10.52;3.88;;;;;;;;;;4996817;28;20054;-79
2023/09/29 01:15:19;;;;;;;8.68;4.45;;;;;;;;;;4985061;28;20034;-79
2023/09/29 01:17:44;;;;;;;10.43;4.07;;;;;;;;;;4969366;28;20043;-80
2023/09/29 01:20:17;;;;;;;9.13;4.40;;;;;;;;;;4972185;28;20038;-78
2023/09/29 01:22:46;;;;;;;9.50;4.35;;;;;;;;;;5001939;28;20036;-79
2023/09/29 01:25:16;;;;;;;7.90;3.90;;;;;;;;;;5001841;28;20030;-79
2023/09/29 01:27:41;;;;;;;9.10;4.57;;;;;;;;;;5000380;28;20026;-79
2023/09/29 01:30:08;;;;;;;7.85;4.07;;;;;;;;;;4995837;28;20038;-78
2023/09/29 01:32:37;;;;;;;8.55;4.65;;;;;;;;;;4981059;28;20084;-78
2023/09/29 01:35:03;;;;;;;8.32;4.38;;;;;;;;;;4996001;28;20046;-78
2023/09/29 01:37:28;;;;;;;11.55;5.10;;;;;;;;;;4996537;28;20117;-78
2023/09/29 01:39:57;;;;;;;12.70;4.57;;;;;;;;;;4978122;28;20113;-78
2023/09/29 01:42:22;;;;;;;8.45;4.50;;;;;;;;;;4995055;28;20026;-77
2023/09/29 01:44:49;;;;;;;7.78;4.60;;;;;;;;;;4997885;28;20026;-78
2023/09/29 01:47:14;;;;;;;10.90;4.85;;;;;;;;;;4999350;28;20026;-79
2023/09/29 01:49:40;;;;;;;6.65;4.22;;;;;;;;;;4998556;28;20394;-77
2023/09/29 01:52:06;;;;;;;7.10;4.40;;;;;;;;;;4998222;28;20097;-78
2023/09/29 01:54:31;;;;;;;13.35;5.28;;;;;;;;;;4997437;28;20077;-78
2023/09/29 01:56:57;;;;;;;10.70;5.40;;;;;;;;;;4998415;28;20165;-78
2023/09/29 01:59:27;;;;;;;6.53;4.30;;;;;;;;;;4996952;28;20034;-77
2023/09/29 02:01:55;;;;;;;8.48;4.70;;;;;;;;;;4996933;28;20444;-78
2023/09/29 02:04:20;;;;;;;7.75;4.18;;;;;;;;;;4999153;28;20026;-79
2023/09/29 02:06:46;;;;;;;7.43;4.40;;;;;;;;;;4982787;28;20402;-79
2023/09/29 02:09:11;;;;;;;6.88;4.30;;;;;;;;;;4981288;28;20096;-77
2023/09/29 02:11:39;;;;;;;9.93;4.38;;;;;;;;;;4982543;28;20045;-78
2023/09/29 02:14:05;;;;;;;7.60;4.10;;;;;;;;;;4981699;28;20482;-78
2023/09/29 02:16:36;;;;;;;7.45;4.38;;;;;;;;;;5000042;28;20026;-78
2023/09/29 02:19:02;;;;;;;9.27;4.40;;;;;;;;;;5001615;28;20041;-78
2023/09/29 02:21:31;;;;;;;8.05;4.30;;;;;;;;;;4997386;28;20105;-77
2023/09/29 02:23:57;;;;;;;8.35;4.22;;;;;;;;;;4997866;28;20036;-78
2023/09/29 02:26:23;;;;;;;8.60;4.28;;;;;;;;;;4981789;28;20030;-78
2023/09/29 02:28:49;;;;;;;8.52;4.40;;;;;;;;;;4981614;28;20041;-78
2023/09/29 02:31:16;;;;;;;9.90;4.15;;;;;;;;;;4996821;28;20371;-79
2023/09/29 02:33:41;;;;;;;6.13;3.80;;;;;;;;;;4980236;28;20117;-79
2023/09/29 02:36:08;;;;;;;9.65;4.70;;;;;;;;;;4997014;28;20038;-80
2023/09/29 02:38:34;;;;;;;9.30;4.57;;;;;;;;;;5000957;28;20109;-80
2023/09/29 02:40:59;;;;;;;10.55;4.40;;;;;;;;;;4998874;28;20547;-79
2023/09/29 02:43:32;;;;;;;7.22;4.20;;;;;;;;;;4981239;28;20120;-78
2023/09/29 02:45:58;;;;;;;7.72;4.63;;;;;;;;;;4981172;28;20034;-78
2023/09/29 02:48:24;;;;;;;6.30;3.95;;;;;;;;;;4998202;28;20040;-78
2023/09/29 02:50:50;;;;;;;7.43;4.45;;;;;;;;;;4982123;28;20371;-79
2023/09/29 02:53:16;;;;;;;7.88;4.32;;;;;;;;;;4998503;28;20034;-79
2023/09/29 02:55:45;;;;;;;6.65;4.50;;;;;;;;;;4983140;28;20034;-79
2023/09/29 02:58:11;;;;;;;6.05;4.00;;;;;;;;;;4998886;28;20040;-78
2023/09/29 03:00:37;;;;;;;10.25;4.25;;;;;;;;;;5000271;28;20113;-79
2023/09/29 03:03:03;;;;;;;8.70;4.57;;;;;;;;;;4999577;28;20473;-78
2023/09/29 03:05:29;;;;;;;8.75;5.13;;;;;;;;;;5000527;28;20141;-77
2023/09/29 03:07:58;;;;;;;11.20;4.45;;;;;;;;;;4999300;28;20371;-78
2023/09/29 03:10:25;;;;;;;8.70;4.18;;;;;;;;;;5001003;28;20104;-78
2023/09/29 03:12:51;;;;;;;8.80;4.55;;;;;;;;;;5002123;28;20048;-79
2023/09/29 03:15:17;;;;;;;12.30;5.05;;;;;;;;;;4986483;28;20065;-81
2023/09/29 03:17:46;;;;;;;9.38;5.00;;;;;;;;;;4985081;28;20044;-80
2023/09/29 03:20:12;;;;;;;11.73;5.50;;;;;;;;;;4985876;28;20034;-78
2023/09/29 03:22:45;;;;;;;9.77;4.88;;;;;;;;;;5002030;28;20069;-79
2023/09/29 03:25:10;;;;;;;8.65;4.72;;;;;;;;;;4984765;28;20029;-79
2023/09/29 03:27:37;;;;;;;7.95;4.57;;;;;;;;;;5002763;28;20034;-80
2023/09/29 03:30:04;;;;;;;8.95;4.82;;;;;;;;;;4997564;28;20030;-77
2023/09/29 03:32:30;;;;;;;6.30;4.63;;;;;;;;;;4980174;28;20031;-78
2023/09/29 03:34:57;;;;;;;13.10;4.97;;;;;;;;;;4997037;28;20034;-78
2023/09/29 03:37:23;;;;;;;7.75;5.05;;;;;;;;;;4998222;28;20113;-79
2023/09/29 03:39:49;;;;;;;8.90;5.40;;;;;;;;;;4997785;28;20046;-77
2023/09/29 03:42:16;;;;;;;10.18;5.53;;;;;;;;;;4997122;28;20406;-77
2023/09/29 03:44:45;;;;;;;12.10;4.60;;;;;;;;;;4997434;28;20061;-77
2023/09/29 03:47:14;;;;;;;12.52;4.53;;;;;;;;;;4981589;28;20275;-79
2023/09/29 03:49:43;;;;;;;8.07;5.05;;;;;;;;;;5001306;28;20041;-79
2023/09/29 03:52:08;;;;;;;9.48;4.82;;;;;;;;;;5004344;28;20030;-78
2023/09/29 03:54:34;;;;;;;13.63;5.00;;;;;;;;;;5007681;28;20045;-80
2023/09/29 03:57:01;;;;;;;10.93;4.72;;;;;;;;;;5008759;28;20026;-78
2023/09/29 03:59:27;;;;;;;12.88;5.70;;;;;;;;;;5010296;28;20040;-79
2023/09/29 04:01:53;;;;;;;8.30;4.80;;;;;;;;;;5006209;28;20121;-78
2023/09/29 04:04:19;;;;;;;9.20;5.07;;;;;;;;;;5007977;28;20085;-79
2023/09/29 04:06:44;;;;;;;10.90;5.43;;;;;;;;;;5002160;28;20529;-79
2023/09/29 04:09:10;;;;;;;10.00;4.70;;;;;;;;;;4996625;28;20498;-78
2023/09/29 04:11:35;;;;;;;8.93;4.90;;;;;;;;;;4975857;23;20074;-80
2023/09/29 04:14:01;;;;;;;9.73;4.93;;;;;;;;;;4938855;29;20053;-79
2023/09/29 04:16:26;;;;;;;11.18;4.72;;;;;;;;;;4954693;29;20038;-80
2023/09/29 04:18:52;;;;;;;8.73;4.95;;;;;;;;;;4957021;28;20086;-80
2023/09/29 04:21:18;;;;;;;9.73;5.85;;;;;;;;;;4955473;28;20553;-80
2023/09/29 04:23:43;;;;;;;9.43;5.40;;;;;;;;;;4956463;28;20443;-80
2023/09/29 04:26:19;;;;;;;13.07;5.40;;;;;;;;;;4957012;29;20034;-79
2023/09/29 04:28:45;;;;;;;15.18;5.45;;;;;;;;;;4939345;28;20035;-79
2023/09/29 04:31:10;;;;;;;10.95;5.70;;;;;;;;;;4955857;29;20114;-78
2023/09/29 04:33:36;;;;;;;7.43;4.45;;;;;;;;;;4940012;29;20443;-79
2023/09/29 04:36:02;;;;;;;9.23;5.38;;;;;;;;;;4957073;28;20131;-79
2023/09/29 04:38:30;;;;;;;13.35;5.18;;;;;;;;;;4955992;29;20035;-79
2023/09/29 04:40:55;;;;;;;11.18;4.75;;;;;;;;;;4955549;29;20039;-80
2023/09/29 04:43:21;;;;;;;9.85;4.97;;;;;;;;;;4955355;28;20054;-80
2023/09/29 04:45:50;;;;;;;14.15;5.35;;;;;;;;;;4955499;29;20137;-79
2023/09/29 04:48:15;;;;;;;9.95;5.55;;;;;;;;;;4956249;28;20027;-78
2023/09/29 04:50:41;;;;;;;9.85;5.05;;;;;;;;;;4956264;29;20034;-78
2023/09/29 04:53:06;;;;;;;14.23;5.47;;;;;;;;;;4954385;28;20181;-78
2023/09/29 04:55:32;;;;;;;14.15;5.55;;;;;;;;;;4955323;28;20037;-78
2023/09/29 04:57:57;;;;;;;9.57;5.32;;;;;;;;;;4954672;28;20513;-80
2023/09/29 05:00:23;;;;;;;12.68;6.13;;;;;;;;;;4954539;29;20437;-78
2023/09/29 05:02:48;;;;;;;13.35;5.40;;;;;;;;;;4939382;29;20035;-79
2023/09/29 05:05:14;;;;;;;10.77;5.07;;;;;;;;;;4954433;28;20035;-78
2023/09/29 05:07:43;;;;;;;8.77;4.68;;;;;;;;;;4955631;28;20618;-80
2023/09/29 05:10:10;;;;;;;12.98;5.80;;;;;;;;;;4941314;29;20090;-79
2023/09/29 05:12:35;;;;;;;15.23;5.65;;;;;;;;;;4945489;29;20107;-78
2023/09/29 05:15:01;;;;;;;12.80;5.22;;;;;;;;;;4968857;29;20035;-78
2023/09/29 05:17:27;;;;;;;13.40;5.32;;;;;;;;;;4971557;28;20035;-79
2023/09/29 05:19:53;;;;;;;15.02;6.00;;;;;;;;;;4966248;28;20523;-78
2023/09/29 05:22:21;;;;;;;9.48;5.38;;;;;;;;;;4959625;29;20484;-80
2023/09/29 05:24:46;;;;;;;8.38;5.22;;;;;;;;;;4957055;28;20024;-79
2023/09/29 05:27:12;;;;;;;11.50;5.30;;;;;;;;;;4941100;29;20074;-81
2023/09/29 05:29:38;;;;;;;11.75;6.25;;;;;;;;;;4957560;28;20484;-80
2023/09/29 05:32:03;;;;;;;9.18;4.78;;;;;;;;;;4956059;29;20039;-78
2023/09/29 05:34:29;;;;;;;10.70;5.38;;;;;;;;;;4957454;28;20090;-80
2023/09/29 05:36:55;;;;;;;7.70;4.70;;;;;;;;;;4958053;28;20098;-80
2023/09/29 05:39:22;;;;;;;10.32;5.53;;;;;;;;;;4955870;29;20034;-80
2023/09/29 05:41:48;;;;;;;10.35;6.43;;;;;;;;;;4956687;28;20036;-80
2023/09/29 05:44:13;;;;;;;11.02;4.93;;;;;;;;;;4955059;28;20058;-80
2023/09/29 05:46:39;;;;;;;9.35;5.40;;;;;;;;;;4956303;28;20023;-79
2023/09/29 05:49:04;;;;;;;8.57;4.57;;;;;;;;;;4957314;28;20066;-80
2023/09/29 05:51:30;;;;;;;10.90;4.55;;;;;;;;;;4956626;28;20039;-79
2023/09/29 05:53:55;;;;;;;11.20;5.05;;;;;;;;;;4940449;29;20082;-78
2023/09/29 05:56:21;;;;;;;11.65;5.45;;;;;;;;;;4955805;28;20119;-79
2023/09/29 05:58:46;;;;;;;8.35;4.97;;;;;;;;;;4955382;29;20093;-80
2023/09/29 06:01:13;;;;;;;8.60;5.30;;;;;;;;;;4942014;29;20031;-80
2023/09/29 06:03:38;;;;;;;12.45;5.40;;;;;;;;;;4958072;28;20552;-79
2023/09/29 06:06:04;;;;;;;7.43;4.95;;;;;;;;;;4959646;28;20063;-78
2023/09/29 06:08:30;;;;;;;14.23;8.82;;;;;;;;;;4957975;28;20035;-78
2023/09/29 06:10:56;;;;;;;9.73;5.38;;;;;;;;;;4957523;29;20031;-79
2023/09/29 06:13:22;;;;;;;11.35;4.80;;;;;;;;;;4956558;28;20043;-79
2023/09/29 06:15:48;;;;;;;8.98;4.70;;;;;;;;;;4956830;28;20399;-80
2023/09/29 06:18:15;;;;;;;8.52;4.50;;;;;;;;;;4956272;29;20457;-78
2023/09/29 06:20:40;;;;;;;6.95;4.72;;;;;;;;;;4956869;28;20031;-79
2023/09/29 06:23:06;;;;;;;10.88;5.10;;;;;;;;;;4959588;28;20051;-78
2023/09/29 06:25:33;;;;;;;10.73;4.70;;;;;;;;;;4960131;28;20790;-78
2023/09/29 06:27:59;;;;;;;9.80;4.75;;;;;;;;;;4948642;28;20095;-79
2023/09/29 06:30:24;;;;;;;7.25;4.20;;;;;;;;;;4935328;29;20039;-79
2023/09/29 06:32:53;;;;;;;10.38;4.72;;;;;;;;;;4969189;28;20122;-80
2023/09/29 06:35:18;;;;;;;7.47;4.78;;;;;;;;;;4957181;29;20035;-79
2023/09/29 06:37:44;;;;;;;8.02;4.85;;;;;;;;;;4970606;28;20042;-80
2023/09/29 06:40:11;;;;;;;8.85;4.18;;;;;;;;;;4971455;28;20133;-78
2023/09/29 06:42:42;;;;;;;6.68;4.10;;;;;;;;;;4965795;28;20038;-80
2023/09/29 06:45:08;;;;;;;;;;;;;;;;;;4964034;28;20024;-79
2023/09/29 06:47:34;;;;;;;13.40;4.90;;;;;;;;;;4963289;28;19938;-80
2023/09/29 06:49:59;;;;;;;11.25;4.72;;;;;;;;;;4962979;28;20062;-80
2023/09/29 06:52:28;;;;;;;7.50;4.65;;;;;;;;;;4950170;29;20099;-81
2023/09/29 06:54:53;;;;;;;9.73;3.97;;;;;;;;;;4963935;28;20426;-79
2023/09/29 06:57:20;;;;;;;9.93;4.32;;;;;;;;;;4966055;28;20071;-80
2023/09/29 06:59:46;;;;;;;12.60;4.82;;;;;;;;;;4967240;29;20137;-80
2023/09/29 07:02:12;;;;;;;8.32;4.28;;;;;;;;;;4969337;28;20495;-80
2023/09/29 07:04:37;;;;;;;8.90;4.72;;;;;;;;;;4962824;28;20066;-79
2023/09/29 07:07:02;;;;;;;8.68;4.70;;;;;;;;;;4945046;28;20109;-79
2023/09/29 07:09:31;;;;;;;9.35;4.32;;;;;;;;;;4961394;29;20029;-79
2023/09/29 07:11:57;;;;;;;10.20;4.30;;;;;;;;;;4960005;28;20125;-80
2023/09/29 07:14:22;;;;;;;7.95;4.07;;;;;;;;;;4961235;28;20114;-78
2023/09/29 07:16:52;;;;;;;9.70;4.28;;;;;;;;;;4963218;28;20031;-78
2023/09/29 07:19:21;;;;;;;7.82;4.55;;;;;;;;;;4959568;29;20039;-78
2023/09/29 07:21:46;;;;;;;8.60;4.30;;;;;;;;;;4959664;28;20038;-79
2023/09/29 07:24:11;;;;;;;8.13;4.45;;;;;;;;;;4960893;28;20420;-79
2023/09/29 07:26:38;;;;;;;11.95;4.40;;;;;;;;;;4959832;29;20503;-80
2023/09/29 07:29:04;;;;;;;10.10;4.40;;;;;;;;;;4960491;29;20043;-80
2023/09/29 07:31:34;;;;;;;8.48;4.68;;;;;;;;;;4961925;28;20106;-79
2023/09/29 07:34:00;;;;;;;14.10;4.45;;;;;;;;;;4944244;28;20035;-79
2023/09/29 07:36:30;;;;;;;10.95;4.70;;;;;;;;;;4961317;28;20058;-80
2023/09/29 07:38:56;;;;;;;10.02;4.22;;;;;;;;;;4970887;28;20059;-78
2023/09/29 07:41:21;;;;;;;10.15;4.30;;;;;;;;;;4972057;28;20046;-78
2023/09/29 07:43:47;;;;;;;12.27;4.47;;;;;;;;;;4972123;28;20035;-79
2023/09/29 07:46:13;;;;;;;7.40;4.15;;;;;;;;;;4971265;28;20027;-79
2023/09/29 07:48:38;;;;;;;12.75;4.35;;;;;;;;;;4961686;28;20032;-79
2023/09/29 07:51:04;;;;;;;8.32;4.13;;;;;;;;;;4960826;28;20035;-80
2023/09/29 07:53:29;;;;;;;10.25;4.05;;;;;;;;;;4944869;29;20062;-81
2023/09/29 07:55:56;;;;;;;9.88;3.65;;;;;;;;;;4944905;29;20129;-80
2023/09/29 07:58:21;;;;;;;10.48;4.20;;;;;;;;;;4944812;29;20043;-79
2023/09/29 08:00:49;;;;;;;7.85;4.30;;;;;;;;;;4960864;29;20031;-79
2023/09/29 08:03:15;;;;;;;12.50;3.85;;;;;;;;;;4962610;28;20038;-79
2023/09/29 08:05:40;;;;;;;8.45;4.05;;;;;;;;;;4962179;28;20055;-79
2023/09/29 08:08:06;;;;;;;12.15;4.35;;;;;;;;;;4960214;29;20035;-79
2023/09/29 08:10:32;;;;;;;10.32;4.05;;;;;;;;;;4960452;28;20031;-79
2023/09/29 08:12:58;;;;;;;9.55;4.20;;;;;;;;;;4959581;28;20114;-78
2023/09/29 08:15:24;;;;;;;13.60;3.80;;;;;;;;;;4975732;28;20102;-80
2023/09/29 08:17:51;;;;;;;9.85;4.00;;;;;;;;;;4959475;28;20050;-80
2023/09/29 08:20:18;;;;;;;8.77;3.88;;;;;;;;;;4956561;29;20440;-80
2023/09/29 08:22:44;;;;;;;8.75;4.18;;;;;;;;;;4942363;29;20126;-82
2023/09/29 08:25:10;;;;;;;7.25;3.50;;;;;;;;;;4944934;29;20035;-79
2023/09/29 08:27:36;;;;;;;8.10;3.67;;;;;;;;;;4961348;29;20027;-79
2023/09/29 08:30:02;;;;;;;7.95;3.70;;;;;;;;;;4959832;29;20034;-78
2023/09/29 08:32:27;;;;;;;11.07;3.80;;;;;;;;;;4959411;28;20035;-79
2023/09/29 08:34:53;;;;;;;7.70;4.00;;;;;;;;;;4959426;28;20499;-80
2023/09/29 08:37:18;;;;;;;9.18;4.15;;;;;;;;;;4959385;28;20031;-80
2023/09/29 08:39:44;;;;;;;9.38;3.58;;;;;;;;;;4942686;29;20039;-80
2023/09/29 08:42:19;;;;;;;7.28;4.15;;;;;;;;;;4958886;28;20439;-79
2023/09/29 08:44:48;;;;;;;9.98;3.97;;;;;;;;;;4956819;28;20468;-80
2023/09/29 08:47:15;;;;;;;11.68;3.65;;;;;;;;;;4955254;28;20027;-78
2023/09/29 08:49:41;;;;;;;8.15;4.00;;;;;;;;;;4955737;28;20023;-80
2023/09/29 08:52:08;;;;;;;13.65;4.28;;;;;;;;;;4956914;28;20049;-79
2023/09/29 08:54:34;;;;;;;8.98;3.60;;;;;;;;;;4957079;28;20043;-79
2023/09/29 08:57:03;;;;;;;;;;;;;;;;;;4958276;28;20051;-80
2023/09/29 08:59:30;;;;;;;10.40;4.07;;;;;;;;;;4960212;28;19918;-80
2023/09/29 09:01:58;;;;;;;11.80;3.97;;;;;;;;;;4944812;29;20476;-79
2023/09/29 09:04:24;;;;;;;;;;;;;;;;;;4950191;28;20030;-79
2023/09/29 09:06:52;;;;;;;15.10;3.92;;;;;;;;;;4962642;28;19903;-78
2023/09/29 09:09:22;;;;;;;11.75;3.88;;;;;;;;;;4963182;28;20034;-80
2023/09/29 09:11:48;;;;;;;14.55;3.20;;;;;;;;;;4978111;28;20023;-80
2023/09/29 09:14:13;;;;;;;16.35;3.92;;;;;;;;;;4975124;28;20106;-79
2023/09/29 09:16:40;;;;;;;16.58;3.80;;;;;;;;;;4977481;28;20039;-80
2023/09/29 09:19:12;;;;;;;10.10;3.70;;;;;;;;;;4965747;28;20123;-79
2023/09/29 09:21:38;;;;;;;10.82;3.45;;;;;;;;;;4945395;29;20042;-80
2023/09/29 09:24:24;;;;;;;11.32;3.13;;;;;;;;;;4963035;28;20070;-80
2023/09/29 09:26:50;;;;;;;16.25;3.75;;;;;;;;;;4963780;28;20047;-80
2023/09/29 09:29:16;;;;;;;13.02;3.55;;;;;;;;;;4947852;29;20031;-81
2023/09/29 09:31:46;;;;;;;14.57;3.70;;;;;;;;;;4962884;29;20045;-81
2023/09/29 09:34:15;;;;;;;17.63;3.65;;;;;;;;;;4962342;28;20499;-80
2023/09/29 09:36:52;;;;;;;15.63;3.78;;;;;;;;;;4945089;29;20047;-80
2023/09/29 09:39:22;;;;;;;11.18;3.92;;;;;;;;;;4962531;29;20093;-80
2023/09/29 09:41:52;;;;;;;16.88;3.85;;;;;;;;;;4945485;29;20023;-81
2023/09/29 09:44:19;;;;;;;8.93;3.22;;;;;;;;;;4961243;28;20027;-79
2023/09/29 09:46:50;;;;;;;12.30;3.28;;;;;;;;;;4962729;28;20395;-80
2023/09/29 09:49:16;;;;;;;8.40;3.33;;;;;;;;;;4946778;29;20043;-79
2023/09/29 09:51:47;;;;;;;12.18;3.42;;;;;;;;;;4962188;29;20065;-79
2023/09/29 09:54:16;;;;;;;14.85;3.50;;;;;;;;;;4960167;28;20035;-79
2023/09/29 09:57:00;;;;;;;9.90;3.65;;;;;;;;;;4957059;28;20031;-80
2023/09/29 09:59:27;;;;;;;8.57;3.40;;;;;;;;;;4959688;28;20031;-79
2023/09/29 10:01:56;;;;;;;9.82;3.38;;;;;;;;;;4959802;28;20031;-80
2023/09/29 10:04:24;;;;;;;13.70;4.00;;;;;;;;;;4966413;28;20463;-80
2023/09/29 10:06:50;;;;;;;9.43;3.10;;;;;;;;;;4972521;28;20023;-78
2023/09/29 10:09:17;;;;;;;12.18;3.08;;;;;;;;;;4974842;28;20028;-79
2023/09/29 10:11:44;;;;;;;12.57;3.67;;;;;;;;;;4971100;23;20039;-77
2023/09/29 10:14:10;;;;;;;15.50;4.07;;;;;;;;;;4971253;28;20027;-78
2023/09/29 10:16:35;;;;;;;11.82;3.70;;;;;;;;;;4985288;28;20038;-78
2023/09/29 10:19:05;;;;;;;13.55;3.42;;;;;;;;;;4982577;28;20434;-78
2023/09/29 10:21:45;;;;;;;13.93;3.30;;;;;;;;;;4967085;28;20086;-78
2023/09/29 10:24:13;;;;;;;9.80;3.72;;;;;;;;;;4983944;28;20185;-78
2023/09/29 10:26:43;;;;;;;16.80;3.53;;;;;;;;;;4986170;28;20054;-78
2023/09/29 10:29:18;;;;;;;10.73;3.80;;;;;;;;;;4989737;28;20265;-77
2023/09/29 10:31:44;;;;;;;16.20;3.97;;;;;;;;;;4990863;28;20043;-78
2023/09/29 10:34:17;;;;;;;7.35;3.00;;;;;;;;;;4986262;28;20057;-78
2023/09/29 10:36:42;;;;;;;7.07;3.20;;;;;;;;;;4988541;28;20035;-77
2023/09/29 10:39:08;;;;;;;11.10;3.15;;;;;;;;;;4989669;28;20033;-77
2023/09/29 10:41:34;;;;;;;11.13;3.05;;;;;;;;;;4974789;28;20041;-78
2023/09/29 10:44:00;;;;;;;7.88;3.13;;;;;;;;;;4991312;28;20022;-78
2023/09/29 10:46:26;;;;;;;9.43;2.95;;;;;;;;;;4990613;28;20042;-78
2023/09/29 10:48:53;;;;;;;6.05;3.05;;;;;;;;;;4990530;28;20038;-78
2023/09/29 10:51:22;;;;;;;10.57;3.00;;;;;;;;;;4971735;28;20045;-78
2023/09/29 10:53:48;;;;;;;12.18;3.13;;;;;;;;;;4989626;28;20102;-78
2023/09/29 10:56:18;;;;;;;16.83;3.70;;;;;;;;;;4973996;28;20246;-78
2023/09/29 10:58:44;;;;;;;7.18;3.03;;;;;;;;;;4990215;28;20031;-78
2023/09/29 11:01:11;;;;;;;12.98;3.25;;;;;;;;;;4972883;28;20054;-77
2023/09/29 11:03:36;;;;;;;10.60;3.40;;;;;;;;;;4990623;28;20074;-77
2023/09/29 11:06:09;;;;;;;9.80;3.50;;;;;;;;;;4993667;28;20019;-78
2023/09/29 11:08:43;;;;;;;10.40;4.03;;;;;;;;;;4974380;28;20034;-78
2023/09/29 11:11:09;;;;;;;14.50;3.50;;;;;;;;;;4993774;28;20041;-78
2023/09/29 11:13:38;;;;;;;12.35;2.97;;;;;;;;;;4992596;28;20042;-78
2023/09/29 11:16:14;;;;;;;6.97;3.10;;;;;;;;;;4991466;28;20030;-78
2023/09/29 11:18:41;;;;;;;12.00;3.20;;;;;;;;;;4976594;28;20042;-79
2023/09/29 11:21:11;;;;;;;13.07;3.60;;;;;;;;;;4993049;28;20054;-78
2023/09/29 11:23:41;;;;;;;11.45;3.63;;;;;;;;;;4970374;28;20046;-78
2023/09/29 11:26:09;;;;;;;9.07;3.47;;;;;;;;;;4970211;28;20035;-78
2023/09/29 11:28:35;;;;;;;;;;;;;;;;;;4991189;28;20562;-78
2023/09/29 11:31:00;;;;;;;7.65;2.75;;;;;;;;;;4974825;28;19921;-78
2023/09/29 11:33:26;;;;;;;7.75;2.80;;;;;;;;;;4993528;28;20026;-78
2023/09/29 11:35:51;;;;;;;15.52;4.28;;;;;;;;;;4972418;28;20082;-78
2023/09/29 11:38:20;;;;;;;13.88;3.33;;;;;;;;;;4984846;28;20062;-78
2023/09/29 11:40:50;;;;;;;5.85;3.13;;;;;;;;;;4987649;28;20039;-79
2023/09/29 11:43:15;;;;;;;7.35;2.85;;;;;;;;;;4990517;28;20058;-79
2023/09/29 11:45:42;;;;;;;9.38;3.05;;;;;;;;;;4990420;28;20030;-78
2023/09/29 11:48:08;;;;;;;11.60;3.00;;;;;;;;;;4992599;28;20041;-77
2023/09/29 11:50:34;;;;;;;10.52;2.70;;;;;;;;;;4991635;28;20035;-82
2023/09/29 11:53:03;;;;;;;9.00;2.67;;;;;;;;;;4992484;28;20054;-79
2023/09/29 11:55:37;;;;;;;7.13;2.63;;;;;;;;;;4991880;28;20053;-78
2023/09/29 11:58:03;;;;;;;8.00;3.13;;;;;;;;;;4992433;28;20046;-79
2023/09/29 12:00:29;;;;;;;5.38;2.55;;;;;;;;;;4993384;28;20030;-78
2023/09/29 12:02:55;;;;;;;9.27;2.75;;;;;;;;;;4972582;28;20129;-78
2023/09/29 12:05:20;;;;;;;12.48;3.75;;;;;;;;;;4983726;28;20450;-78
2023/09/29 12:07:46;;;;;;;9.13;2.85;;;;;;;;;;4970553;28;20041;-77
2023/09/29 12:10:13;;;;;;;6.05;2.60;;;;;;;;;;4991140;28;20062;-77
2023/09/29 12:12:38;;;;;;;7.95;2.50;;;;;;;;;;4989978;28;20050;-79
2023/09/29 12:15:05;;;;;;;7.05;2.40;;;;;;;;;;4974154;28;20041;-78
2023/09/29 12:17:30;;;;;;;11.55;3.55;;;;;;;;;;4990836;28;20027;-78
2023/09/29 12:19:56;;;;;;;5.63;2.70;;;;;;;;;;4958817;28;20029;-78
2023/09/29 12:22:22;;;;;;;7.13;2.63;;;;;;;;;;4993563;28;20062;-78
2023/09/29 12:24:49;;;;;;;6.55;2.70;;;;;;;;;;4995550;28;20026;-78
2023/09/29 12:27:15;;;;;;;5.40;2.75;;;;;;;;;;4963447;28;20042;-78
2023/09/29 12:29:40;;;;;;;5.45;2.55;;;;;;;;;;4992325;28;20027;-77
2023/09/29 12:32:06;;;;;;;7.03;2.85;;;;;;;;;;4971687;28;20417;-77
2023/09/29 12:34:34;;;;;;;4.93;2.35;;;;;;;;;;4983564;28;20039;-77
2023/09/29 12:37:00;;;;;;;;;;;;;;;;;;4968555;28;20082;-78
2023/09/29 12:39:26;;;;;;;5.68;2.85;;;;;;;;;;4989126;28;19910;-77
2023/09/29 12:41:53;;;;;;;5.28;2.90;;;;;;;;;;4990139;28;20034;-77
2023/09/29 12:44:20;;;;;;;6.82;3.00;;;;;;;;;;4972801;28;20030;-78
2023/09/29 12:46:45;;;;;;;8.77;2.90;;;;;;;;;;4969067;28;20058;-78
2023/09/29 12:49:11;;;;;;;7.43;2.45;;;;;;;;;;4962034;28;20038;-78
2023/09/29 12:51:36;;;;;;;6.90;2.78;;;;;;;;;;4960626;28;20398;-78
2023/09/29 12:54:02;;;;;;;8.75;2.80;;;;;;;;;;4960494;28;20031;-78
2023/09/29 12:56:28;;;;;;;7.38;2.70;;;;;;;;;;4977215;28;20406;-78
2023/09/29 12:58:55;;;;;;;10.52;2.90;;;;;;;;;;4976453;28;20035;-77
2023/09/29 13:01:25;;;;;;;7.35;3.67;;;;;;;;;;4960026;28;20103;-77
2023/09/29 13:03:51;;;;;;;6.88;2.90;;;;;;;;;;4966442;28;20058;-77
2023/09/29 13:06:17;;;;;;;9.23;2.67;;;;;;;;;;4982842;28;20027;-78
2023/09/29 13:08:43;;;;;;;9.10;2.88;;;;;;;;;;4982452;28;20458;-78
2023/09/29 13:11:18;;;;;;;6.68;2.83;;;;;;;;;;4980133;28;20035;-79
2023/09/29 13:13:44;;;;;;;10.32;3.00;;;;;;;;;;4987181;28;20125;-78
2023/09/29 13:16:11;;;;;;;9.20;2.70;;;;;;;;;;4985212;28;20031;-78
2023/09/29 13:18:40;;;;;;;5.20;2.70;;;;;;;;;;4969326;28;20046;-78
2023/09/29 13:21:06;;;;;;;8.15;2.90;;;;;;;;;;4971000;28;20070;-78
2023/09/29 13:23:32;;;;;;;11.38;3.10;;;;;;;;;;4973390;28;20134;-78
2023/09/29 13:25:58;;;;;;;9.27;2.88;;;;;;;;;;4979874;28;20034;-80
2023/09/29 13:28:23;;;;;;;5.15;2.33;;;;;;;;;;4977869;28;20069;-79
2023/09/29 13:30:49;;;;;;;7.32;2.92;;;;;;;;;;4968844;28;20043;-79
2023/09/29 13:33:17;;;;;;;12.82;2.97;;;;;;;;;;4965677;28;20081;-79
2023/09/29 13:35:42;;;;;;;4.97;2.67;;;;;;;;;;4983706;28;20105;-79
2023/09/29 13:38:10;;;;;;;9.98;3.00;;;;;;;;;;4983838;28;20043;-79
2023/09/29 13:40:37;;;;;;;6.70;2.70;;;;;;;;;;4990318;28;20194;-79
2023/09/29 13:43:03;;;;;;;6.45;2.60;;;;;;;;;;4989574;28;20054;-79
2023/09/29 13:45:28;;;;;;;6.25;2.55;;;;;;;;;;4989916;28;20105;-79
2023/09/29 13:47:54;;;;;;;9.13;2.60;;;;;;;;;;4991901;28;20034;-79
2023/09/29 13:50:22;;;;;;;7.00;2.40;;;;;;;;;;4990291;28;20026;-79
2023/09/29 13:52:47;;;;;;;7.40;2.97;;;;;;;;;;4983556;28;20031;-78
2023/09/29 13:55:13;;;;;;;12.93;2.63;;;;;;;;;;4980987;28;20049;-79
2023/09/29 13:57:39;;;;;;;9.80;2.25;;;;;;;;;;4982866;28;20037;-79
2023/09/29 14:00:05;;;;;;;7.30;2.30;;;;;;;;;;4965935;28;20098;-79
2023/09/29 14:02:30;;;;;;;5.80;2.10;;;;;;;;;;4982648;28;20110;-79
2023/09/29 14:04:56;;;;;;;5.93;2.03;;;;;;;;;;4965999;28;20073;-79
2023/09/29 14:07:22;;;;;;;9.02;2.38;;;;;;;;;;4981110;28;20027;-78
2023/09/29 14:09:47;;;;;;;8.80;2.22;;;;;;;;;;4982954;28;20090;-79
2023/09/29 14:12:13;;;;;;;7.45;2.20;;;;;;;;;;4961336;28;20030;-79
2023/09/29 14:14:40;;;;;;;7.65;2.20;;;;;;;;;;4980127;28;20034;-79
2023/09/29 14:17:06;;;;;;;11.13;2.63;;;;;;;;;;4979588;28;20118;-79
2023/09/29 14:19:32;;;;;;;6.68;2.40;;;;;;;;;;4977362;28;20399;-78
2023/09/29 14:21:58;;;;;;;8.25;2.80;;;;;;;;;;4960905;28;20389;-79
2023/09/29 14:24:23;;;;;;;5.28;2.40;;;;;;;;;;4960557;28;20163;-78
2023/09/29 14:26:49;;;;;;;11.15;2.35;;;;;;;;;;4976603;28;20189;-77
2023/09/29 14:29:17;;;;;;;6.00;2.50;;;;;;;;;;4976313;28;20109;-77
2023/09/29 14:31:44;;;;;;;;;;;;;;;;;;4943993;28;20042;-77
2023/09/29 14:34:10;;;;;;;9.55;2.22;;;;;;;;;;4978359;28;19914;-78
2023/09/29 14:36:36;;;;;;;4.15;2.25;;;;;;;;;;4943884;28;20046;-79
2023/09/29 14:39:03;;;;;;;5.13;2.58;;;;;;;;;;4977446;28;20039;-78
2023/09/29 14:41:29;;;;;;;7.30;2.30;;;;;;;;;;4982346;28;20470;-78